Terminal Aerodrome Forecast
Issued by NWS North Platte, NE

Home | Current Version | Previous Version | Graphics & Text | Print | Product List | Glossary On
Versions: 1 2 3 4 5 6 7 8 9 10 11 12 13 14 15
727
FTUS43 KLBF 261132
TAFVTN
TAF
KVTN 261132Z 2612/2712 VRB04KT P6SM SCT200
     FM261500 15010KT P6SM BKN100 BKN200
     FM261800 16012KT P6SM VCTS BKN060CB
     FM262200 17010KT P6SM BKN060 BKN200
     FM270300 20005KT P6SM BKN250=

USA.gov is the U.S. government's official web portal to all federal, state and local government web resources and services.